Time;durP1;ratioP1;P1;durP2;ratioP2;P2;SDS_P1;SDS_P2;PMS_P1;PMS_P2;Temp;Humidity;BMP_temperature;BMP_pressure;BME280_temperature;BME280_humidity;BME280_pressure;Samples;Min_cycle;Max_cycle;Signal;HPM_P1;HPM_P2
2021/09/04 00:00:59;;;;;;;;;;;22.80;46.40;;;;;;8364221;28;19932;-47
2021/09/04 00:04:59;;;;;;;;;;;22.90;46.40;;;;;;8365190;28;19959;-48
2021/09/04 00:09:01;;;;;;;;;;;22.80;46.40;;;;;;8365049;28;19924;-48
2021/09/04 00:13:01;;;;;;;;;;;22.80;46.40;;;;;;8363956;28;19946;-47
2021/09/04 00:17:02;;;;;;;;;;;22.80;46.40;;;;;;8364002;28;19924;-48
2021/09/04 00:21:02;;;;;;;;;;;22.80;46.40;;;;;;8363514;28;19913;-48
2021/09/04 00:25:03;;;;;;;;;;;22.80;46.40;;;;;;8363647;28;19916;-48
2021/09/04 00:29:03;;;;;;;;;;;22.80;46.40;;;;;;8364200;28;20023;-47
2021/09/04 00:33:04;;;;;;;;;;;22.80;46.40;;;;;;8363625;28;19925;-49
2021/09/04 00:37:04;;;;;;;;;;;22.80;46.40;;;;;;8363207;28;19935;-51
2021/09/04 00:41:05;;;;;;;;;;;22.80;46.40;;;;;;8364419;28;20266;-47
2021/09/04 00:45:05;;;;;;;;;;;22.80;46.40;;;;;;8363333;28;19917;-49
2021/09/04 00:49:06;;;;;;;;;;;22.80;46.40;;;;;;8362996;28;19917;-46
2021/09/04 00:53:07;;;;;;;;;;;22.80;46.50;;;;;;8363119;28;19932;-47
2021/09/04 00:57:07;;;;;;;;;;;22.70;46.40;;;;;;8364175;28;19923;-51
2021/09/04 01:01:08;;;;;;;;;;;22.70;46.40;;;;;;8362713;28;20070;-48
2021/09/04 01:05:08;;;;;;;;;;;22.70;46.40;;;;;;8363373;28;19920;-50
2021/09/04 01:09:09;;;;;;;;;;;22.70;46.40;;;;;;8363402;28;19921;-48
2021/09/04 01:13:09;;;;;;;;;;;22.70;46.40;;;;;;8363272;28;19944;-47
2021/09/04 01:17:10;;;;;;;;;;;22.70;46.50;;;;;;8363093;28;19921;-49
2021/09/04 01:21:11;;;;;;;;;;;22.70;46.40;;;;;;8363203;28;19917;-47
2021/09/04 01:25:21;;;;;;;;;;;22.70;46.50;;;;;;8362272;28;20003;-46
2021/09/04 01:29:23;;;;;;;;;;;22.70;46.40;;;;;;8362631;28;20066;-48
2021/09/04 01:33:23;;;;;;;;;;;22.70;46.50;;;;;;8363197;28;19968;-49
2021/09/04 01:37:23;;;;;;;;;;;22.70;46.50;;;;;;8362047;28;19924;-47
2021/09/04 01:41:24;;;;;;;;;;;22.70;46.50;;;;;;8362658;28;19970;-48
2021/09/04 01:45:24;;;;;;;;;;;22.60;46.40;;;;;;8362597;28;20423;-47
2021/09/04 01:49:25;;;;;;;;;;;22.70;46.50;;;;;;8362752;28;19944;-48
2021/09/04 01:53:25;;;;;;;;;;;22.60;46.40;;;;;;8362485;28;20020;-47
2021/09/04 01:57:26;;;;;;;;;;;22.60;46.40;;;;;;8366417;28;19940;-48
2021/09/04 02:01:26;;;;;;;;;;;22.60;46.50;;;;;;8367959;28;19921;-47
2021/09/04 02:05:27;;;;;;;;;;;22.60;46.50;;;;;;8368387;28;19912;-47
2021/09/04 02:09:27;;;;;;;;;;;22.60;46.50;;;;;;8369331;28;19943;-48
2021/09/04 02:13:28;;;;;;;;;;;22.60;46.50;;;;;;8367569;28;20313;-47
2021/09/04 02:17:28;;;;;;;;;;;22.60;46.50;;;;;;8368077;28;19921;-49
2021/09/04 02:21:29;;;;;;;;;;;22.60;46.50;;;;;;8367873;28;19917;-48
2021/09/04 02:25:29;;;;;;;;;;;22.60;46.50;;;;;;8367893;28;20007;-46
2021/09/04 02:29:30;;;;;;;;;;;22.60;46.50;;;;;;8367590;28;20331;-49
2021/09/04 02:33:30;;;;;;;;;;;22.60;46.50;;;;;;8367199;28;20369;-47
2021/09/04 02:37:31;;;;;;;;;;;22.50;46.50;;;;;;8366857;28;20301;-48
2021/09/04 02:41:31;;;;;;;;;;;22.50;46.50;;;;;;8367992;28;19928;-48
2021/09/04 02:45:32;;;;;;;;;;;22.60;46.50;;;;;;8367117;28;19916;-47
2021/09/04 02:49:33;;;;;;;;;;;22.50;46.50;;;;;;8366419;28;19917;-47
2021/09/04 02:53:33;;;;;;;;;;;22.50;46.50;;;;;;8366790;28;19933;-48
2021/09/04 02:57:34;;;;;;;;;;;22.50;46.50;;;;;;8366602;28;19925;-48
2021/09/04 03:01:34;;;;;;;;;;;22.50;46.50;;;;;;8366956;28;19978;-48
2021/09/04 03:05:35;;;;;;;;;;;22.50;46.50;;;;;;8366492;28;19916;-48
2021/09/04 03:09:36;;;;;;;;;;;22.50;46.50;;;;;;8366896;28;19967;-47
2021/09/04 03:13:36;;;;;;;;;;;22.50;46.60;;;;;;8365418;28;19932;-47
2021/09/04 03:17:36;;;;;;;;;;;22.50;46.60;;;;;;8366833;28;19959;-47
2021/09/04 03:21:37;;;;;;;;;;;22.50;46.60;;;;;;8365961;28;19927;-47
2021/09/04 03:25:37;;;;;;;;;;;22.50;46.60;;;;;;8366068;28;19928;-48
2021/09/04 03:29:38;;;;;;;;;;;22.50;46.60;;;;;;8365562;28;19916;-46
2021/09/04 03:33:38;;;;;;;;;;;22.40;46.50;;;;;;8365720;28;19929;-49
2021/09/04 03:37:39;;;;;;;;;;;22.50;46.60;;;;;;8365356;28;20336;-47
2021/09/04 03:41:39;;;;;;;;;;;22.40;46.60;;;;;;8365408;28;19917;-48
2021/09/04 03:45:40;;;;;;;;;;;22.40;46.60;;;;;;8364956;28;19936;-47
2021/09/04 03:49:40;;;;;;;;;;;22.50;46.60;;;;;;8364485;28;20063;-47
2021/09/04 03:53:41;;;;;;;;;;;22.40;46.60;;;;;;8365517;28;19925;-48
2021/09/04 03:57:41;;;;;;;;;;;22.40;46.60;;;;;;8364711;28;20273;-47
2021/09/04 04:01:41;;;;;;;;;;;22.40;46.50;;;;;;8364162;28;20427;-46
2021/09/04 04:05:42;;;;;;;;;;;22.40;46.60;;;;;;8364418;28;19939;-48
2021/09/04 04:09:44;;;;;;;;;;;22.40;46.50;;;;;;8365617;28;19921;-47
2021/09/04 04:13:44;;;;;;;;;;;22.40;46.50;;;;;;8363789;28;19924;-47
2021/09/04 04:17:45;;;;;;;;;;;22.40;46.50;;;;;;8363701;28;20377;-48
2021/09/04 04:21:47;;;;;;;;;;;22.40;46.50;;;;;;8363355;28;21305;-48
2021/09/04 04:25:47;;;;;;;;;;;22.40;46.50;;;;;;8363426;28;19920;-48
2021/09/04 04:29:48;;;;;;;;;;;22.40;46.50;;;;;;8364680;28;19917;-48
2021/09/04 04:33:48;;;;;;;;;;;22.40;46.50;;;;;;8363466;28;19925;-46
2021/09/04 04:37:49;;;;;;;;;;;22.40;46.60;;;;;;8363669;28;19917;-47
2021/09/04 04:41:49;;;;;;;;;;;22.40;46.60;;;;;;8363410;28;20305;-47
2021/09/04 04:45:50;;;;;;;;;;;22.40;46.60;;;;;;8363854;28;19936;-47
2021/09/04 04:49:50;;;;;;;;;;;22.40;46.60;;;;;;8363626;28;20370;-48
2021/09/04 04:53:51;;;;;;;;;;;22.40;46.60;;;;;;8363447;28;19929;-48
2021/09/04 04:57:51;;;;;;;;;;;22.30;46.60;;;;;;8362736;28;19963;-47
2021/09/04 05:01:51;;;;;;;;;;;22.30;46.60;;;;;;8363880;28;19913;-48
2021/09/04 05:05:52;;;;;;;;;;;22.30;46.60;;;;;;8363015;28;20396;-47
2021/09/04 05:09:52;;;;;;;;;;;22.30;46.60;;;;;;8362469;28;19920;-47
2021/09/04 05:13:53;;;;;;;;;;;22.30;46.60;;;;;;8363305;28;19925;-48
2021/09/04 05:17:53;;;;;;;;;;;22.30;46.50;;;;;;8363054;28;19948;-48
2021/09/04 05:21:54;;;;;;;;;;;22.30;46.50;;;;;;8363182;28;19913;-46
2021/09/04 05:25:54;;;;;;;;;;;22.30;46.60;;;;;;8362634;28;19917;-48
2021/09/04 05:29:54;;;;;;;;;;;22.30;46.50;;;;;;8362770;28;19917;-47
2021/09/04 05:33:55;;;;;;;;;;;22.30;46.50;;;;;;8368887;28;19985;-48
2021/09/04 05:37:56;;;;;;;;;;;22.30;47.10;;;;;;8369844;28;19948;-47
2021/09/04 05:41:56;;;;;;;;;;;22.30;46.50;;;;;;8368905;28;19917;-49
2021/09/04 05:45:56;;;;;;;;;;;22.30;46.60;;;;;;8368366;28;19979;-47
2021/09/04 05:49:57;;;;;;;;;;;22.30;46.60;;;;;;8368539;28;19917;-47
2021/09/04 05:53:57;;;;;;;;;;;22.20;46.60;;;;;;8369344;28;20266;-47
2021/09/04 05:57:58;;;;;;;;;;;22.20;46.60;;;;;;8368097;28;20305;-47
2021/09/04 06:01:58;;;;;;;;;;;22.20;46.60;;;;;;8368628;28;19916;-48
2021/09/04 06:05:59;;;;;;;;;;;22.20;46.60;;;;;;8368544;28;19921;-47
2021/09/04 06:10:00;;;;;;;;;;;22.20;46.60;;;;;;8368070;28;19936;-50
2021/09/04 06:14:00;;;;;;;;;;;22.20;46.60;;;;;;8369233;28;19978;-51
2021/09/04 06:18:01;;;;;;;;;;;22.20;46.60;;;;;;8369196;28;19920;-49
2021/09/04 06:22:02;;;;;;;;;;;22.20;46.50;;;;;;8369473;28;19916;-48
2021/09/04 06:26:02;;;;;;;;;;;22.20;46.50;;;;;;8368186;28;19971;-49
2021/09/04 06:30:04;;;;;;;;;;;22.20;46.40;;;;;;8368309;28;19913;-50
2021/09/04 06:34:04;;;;;;;;;;;22.30;46.50;;;;;;8366953;28;20297;-49
2021/09/04 06:38:05;;;;;;;;;;;22.30;46.50;;;;;;8367257;28;20003;-48
2021/09/04 06:42:05;;;;;;;;;;;22.20;46.40;;;;;;8366578;28;19917;-47
2021/09/04 06:46:06;;;;;;;;;;;22.30;46.40;;;;;;8366858;28;20387;-48
2021/09/04 06:50:06;;;;;;;;;;;22.30;46.40;;;;;;8367621;28;19913;-47
2021/09/04 06:54:07;;;;;;;;;;;22.30;46.30;;;;;;8366677;28;20020;-49
2021/09/04 06:58:07;;;;;;;;;;;22.30;46.30;;;;;;8366324;28;19925;-48
2021/09/04 07:02:08;;;;;;;;;;;22.30;46.40;;;;;;8366580;28;19925;-50
2021/09/04 07:06:08;;;;;;;;;;;22.30;46.30;;;;;;8367132;28;19947;-47
2021/09/04 07:10:09;;;;;;;;;;;22.30;46.30;;;;;;8366472;28;20384;-48
2021/09/04 07:14:09;;;;;;;;;;;22.30;46.30;;;;;;8366126;28;19931;-48
2021/09/04 07:18:10;;;;;;;;;;;22.30;46.30;;;;;;8366274;28;19913;-48
2021/09/04 07:22:10;;;;;;;;;;;22.30;46.40;;;;;;8366148;28;19920;-51
2021/09/04 07:26:11;;;;;;;;;;;22.30;46.40;;;;;;8365858;28;20359;-49
2021/09/04 07:30:11;;;;;;;;;;;22.40;46.40;;;;;;8365749;28;19920;-47
2021/09/04 07:34:12;;;;;;;;;;;22.40;46.30;;;;;;8365341;28;20396;-48
2021/09/04 07:38:12;;;;;;;;;;;22.40;46.20;;;;;;8365294;28;19928;-50
2021/09/04 07:42:13;;;;;;;;;;;22.40;46.30;;;;;;8365852;28;19920;-47
2021/09/04 07:46:13;;;;;;;;;;;22.40;46.30;;;;;;8364425;28;19924;-49
2021/09/04 07:50:13;;;;;;;;;;;22.40;46.30;;;;;;8364816;28;20434;-48
2021/09/04 07:54:14;;;;;;;;;;;22.30;46.30;;;;;;8363990;28;19971;-48
2021/09/04 07:58:14;;;;;;;;;;;22.30;46.40;;;;;;8365024;28;19948;-47
2021/09/04 08:02:15;;;;;;;;;;;22.40;46.40;;;;;;8364472;28;19924;-48
2021/09/04 08:06:15;;;;;;;;;;;22.30;46.40;;;;;;8364320;28;19924;-48
2021/09/04 08:10:16;;;;;;;;;;;22.40;46.50;;;;;;8363827;28;19932;-48
2021/09/04 08:14:16;;;;;;;;;;;22.30;46.40;;;;;;8365141;28;19949;-47
2021/09/04 08:18:17;;;;;;;;;;;22.40;46.50;;;;;;8363925;28;19924;-47
2021/09/04 08:22:17;;;;;;;;;;;22.40;46.50;;;;;;8363539;28;19917;-48
2021/09/04 08:26:18;;;;;;;;;;;22.30;46.50;;;;;;8363666;28;19919;-50
2021/09/04 08:30:18;;;;;;;;;;;22.40;46.50;;;;;;8363958;28;19946;-47
2021/09/04 08:34:19;;;;;;;;;;;22.40;46.50;;;;;;8363934;28;20008;-49
2021/09/04 08:38:19;;;;;;;;;;;22.40;46.50;;;;;;8363748;28;19923;-48
2021/09/04 08:42:20;;;;;;;;;;;22.40;46.50;;;;;;8363343;28;19913;-51
2021/09/04 08:46:20;;;;;;;;;;;22.40;46.50;;;;;;8363018;28;19917;-51
2021/09/04 08:50:21;;;;;;;;;;;22.40;46.50;;;;;;8364342;28;19916;-50
2021/09/04 08:54:21;;;;;;;;;;;22.40;46.50;;;;;;8363093;28;19975;-49
2021/09/04 08:58:21;;;;;;;;;;;22.50;46.50;;;;;;8362980;28;19924;-48
2021/09/04 09:02:26;;;;;;;;;;;22.50;46.50;;;;;;8363202;28;19912;-47
2021/09/04 09:06:27;;;;;;;;;;;22.50;46.60;;;;;;8362589;28;19924;-48
2021/09/04 09:10:30;;;;;;;;;;;22.50;46.60;;;;;;8363498;28;20369;-48
2021/09/04 09:14:33;;;;;;;;;;;22.50;46.60;;;;;;8363138;28;19925;-48
2021/09/04 09:18:34;;;;;;;;;;;22.50;46.60;;;;;;8362940;28;19971;-51
2021/09/04 09:22:43;;;;;;;;;;;22.50;46.60;;;;;;8362293;28;20439;-48
2021/09/04 09:26:48;;;;;;;;;;;22.60;46.60;;;;;;8363626;28;19956;-48
2021/09/04 09:30:52;;;;;;;;;;;22.60;46.70;;;;;;8362181;28;19924;-47
2021/09/04 09:34:53;;;;;;;;;;;22.60;46.60;;;;;;8362387;28;19940;-52
2021/09/04 09:38:54;;;;;;;;;;;22.60;46.60;;;;;;8362702;28;20004;-49
2021/09/04 09:42:55;;;;;;;;;;;22.60;46.60;;;;;;8362415;28;19913;-48
2021/09/04 09:46:58;;;;;;;;;;;22.70;46.60;;;;;;8362823;28;19920;-51
2021/09/04 09:51:00;;;;;;;;;;;22.70;46.60;;;;;;8362243;28;19963;-48
2021/09/04 09:55:00;;;;;;;;;;;22.70;46.60;;;;;;8361640;28;19929;-50
2021/09/04 09:59:01;;;;;;;;;;;22.70;46.50;;;;;;8362451;28;20401;-52
2021/09/04 10:03:04;;;;;;;;;;;22.70;46.50;;;;;;8363022;28;20000;-51
2021/09/04 10:07:06;;;;;;;;;;;22.70;46.40;;;;;;8361883;28;20360;-49
2021/09/04 10:11:07;;;;;;;;;;;22.80;46.60;;;;;;8362167;28;19917;-50
2021/09/04 10:15:08;;;;;;;;;;;22.80;46.60;;;;;;8362109;28;19931;-48
2021/09/04 10:19:08;;;;;;;;;;;22.80;46.50;;;;;;8367299;28;19921;-51
2021/09/04 10:23:15;;;;;;;;;;;22.90;46.50;;;;;;8367972;28;20270;-49
2021/09/04 10:27:36;;;;;;;;;;;22.90;46.50;;;;;;8367911;28;19920;-52
2021/09/04 10:31:53;;;;;;;;;;;22.90;46.40;;;;;;8367203;28;19924;-51
2021/09/04 10:35:53;;;;;;;;;;;23.00;46.40;;;;;;8371986;28;20356;-48
2021/09/04 10:39:54;;;;;;;;;;;23.00;46.40;;;;;;8367761;28;19913;-52
2021/09/04 10:43:57;;;;;;;;;;;23.00;46.40;;;;;;8367606;28;19917;-51
2021/09/04 10:47:57;;;;;;;;;;;23.00;46.30;;;;;;8366226;28;19917;-49
2021/09/04 10:51:58;;;;;;;;;;;23.10;46.30;;;;;;8366506;28;19986;-53
2021/09/04 10:56:16;;;;;;;;;;;23.00;46.30;;;;;;8366839;28;20027;-51
2021/09/04 11:00:23;;;;;;;;;;;23.00;46.30;;;;;;8367743;28;20400;-48
2021/09/04 11:04:24;;;;;;;;;;;23.10;46.40;;;;;;8366195;28;20445;-53
2021/09/04 11:08:35;;;;;;;;;;;23.10;46.40;;;;;;8366745;28;19921;-48
2021/09/04 11:12:35;;;;;;;;;;;23.10;46.40;;;;;;8366311;28;20377;-48
2021/09/04 11:16:38;;;;;;;;;;;23.10;46.40;;;;;;8365854;28;19913;-53
2021/09/04 11:20:46;;;;;;;;;;;23.10;46.40;;;;;;8366964;28;19917;-48
2021/09/04 11:24:49;;;;;;;;;;;23.10;46.40;;;;;;8366191;28;19923;-47
2021/09/04 11:28:56;;;;;;;;;;;23.10;46.40;;;;;;8364376;28;19932;-49
2021/09/04 11:33:23;;;;;;;;;;;23.10;46.40;;;;;;8365566;28;20011;-52
2021/09/04 11:37:26;;;;;;;;;;;23.20;46.50;;;;;;8364117;28;20309;-48
2021/09/04 11:41:26;;;;;;;;;;;23.20;46.40;;;;;;8366199;28;20374;-50
2021/09/04 11:45:31;;;;;;;;;;;23.20;46.40;;;;;;8365358;28;19962;-48
2021/09/04 11:49:44;;;;;;;;;;;23.20;46.40;;;;;;8365006;28;19925;-51
2021/09/04 11:53:44;;;;;;;;;;;23.20;46.40;;;;;;8365320;28;19924;-47
2021/09/04 11:57:46;;;;;;;;;;;23.20;46.30;;;;;;8365514;28;19966;-48
2021/09/04 12:01:47;;;;;;;;;;;23.30;46.40;;;;;;8364281;28;19960;-49
2021/09/04 12:05:47;;;;;;;;;;;23.30;46.30;;;;;;8364922;28;19917;-50
2021/09/04 12:09:47;;;;;;;;;;;23.30;46.30;;;;;;8365117;28;20246;-48
2021/09/04 12:13:49;;;;;;;;;;;23.30;46.30;;;;;;8360007;28;19971;-49
2021/09/04 12:17:50;;;;;;;;;;;23.30;46.30;;;;;;8365307;28;19920;-48
2021/09/04 12:21:51;;;;;;;;;;;23.30;46.30;;;;;;8363746;28;19917;-47
2021/09/04 12:25:53;;;;;;;;;;;23.40;46.30;;;;;;8364054;28;20004;-49
2021/09/04 12:30:00;;;;;;;;;;;23.40;46.30;;;;;;8364186;28;19917;-47
2021/09/04 12:34:01;;;;;;;;;;;23.40;46.30;;;;;;8364165;28;19921;-47
2021/09/04 12:38:02;;;;;;;;;;;23.40;46.30;;;;;;8364113;28;20305;-47
2021/09/04 12:42:10;;;;;;;;;;;23.40;46.30;;;;;;8363302;28;19921;-49
2021/09/04 12:46:10;;;;;;;;;;;23.40;46.30;;;;;;8363520;28;19967;-48
2021/09/04 12:50:22;;;;;;;;;;;23.40;46.30;;;;;;8364040;28;19916;-48
2021/09/04 12:54:33;;;;;;;;;;;23.40;46.20;;;;;;8364241;28;19928;-46
2021/09/04 12:58:33;;;;;;;;;;;23.50;46.30;;;;;;8363104;28;19916;-49
2021/09/04 13:02:40;;;;;;;;;;;23.50;46.30;;;;;;8363325;28;20293;-47
2021/09/04 13:06:41;;;;;;;;;;;23.50;46.30;;;;;;8363306;28;20308;-46
2021/09/04 13:10:41;;;;;;;;;;;23.50;46.30;;;;;;8364054;28;19931;-48
2021/09/04 13:14:42;;;;;;;;;;;23.50;46.30;;;;;;8363246;28;19932;-47
2021/09/04 13:18:42;;;;;;;;;;;23.50;46.30;;;;;;8363258;28;19913;-47
2021/09/04 13:22:44;;;;;;;;;;;23.50;46.30;;;;;;8362539;28;19917;-46
2021/09/04 13:26:45;;;;;;;;;;;23.60;46.30;;;;;;8363062;28;20358;-47
2021/09/04 13:30:45;;;;;;;;;;;23.60;46.30;;;;;;8363641;28;19932;-48
2021/09/04 13:34:45;;;;;;;;;;;23.60;46.30;;;;;;8362403;28;19931;-48
2021/09/04 13:38:46;;;;;;;;;;;23.60;46.30;;;;;;8362719;28;19913;-46
2021/09/04 13:42:46;;;;;;;;;;;23.60;46.20;;;;;;8362855;28;19964;-46
2021/09/04 13:46:47;;;;;;;;;;;23.60;46.20;;;;;;8363056;28;19912;-46
2021/09/04 13:50:47;;;;;;;;;;;23.60;46.10;;;;;;8362718;28;20282;-46
2021/09/04 13:54:48;;;;;;;;;;;23.60;46.10;;;;;;8368855;28;20329;-46
2021/09/04 13:58:48;;;;;;;;;;;23.60;46.10;;;;;;8368393;28;19959;-46
2021/09/04 14:02:49;;;;;;;;;;;23.60;46.10;;;;;;8369150;28;19974;-49
2021/09/04 14:06:49;;;;;;;;;;;23.60;46.10;;;;;;8367946;28;20274;-46
2021/09/04 14:10:50;;;;;;;;;;;23.60;46.10;;;;;;8368519;28;20300;-47
2021/09/04 14:14:50;;;;;;;;;;;23.60;46.10;;;;;;8368329;28;19986;-46
2021/09/04 14:18:50;;;;;;;;;;;23.60;46.10;;;;;;8367766;28;19924;-47
2021/09/04 14:22:51;;;;;;;;;;;23.60;46.10;;;;;;8368601;28;20003;-46
2021/09/04 14:26:51;;;;;;;;;;;23.60;46.00;;;;;;8367839;28;20297;-47
2021/09/04 14:30:52;;;;;;;;;;;23.70;46.10;;;;;;8367757;28;20012;-47
2021/09/04 14:34:52;;;;;;;;;;;23.70;46.10;;;;;;8367395;28;19947;-46
2021/09/04 14:38:53;;;;;;;;;;;23.70;46.10;;;;;;8368335;28;19967;-46
2021/09/04 14:42:55;;;;;;;;;;;23.70;46.10;;;;;;8366929;28;19917;-47
2021/09/04 14:46:56;;;;;;;;;;;23.70;46.10;;;;;;8367696;28;20389;-46
2021/09/04 14:50:56;;;;;;;;;;;23.70;46.10;;;;;;8366920;28;19920;-47
2021/09/04 14:54:57;;;;;;;;;;;23.70;46.00;;;;;;8366865;28;19929;-47
2021/09/04 14:58:57;;;;;;;;;;;23.70;46.10;;;;;;8367464;28;19951;-47
2021/09/04 15:02:58;;;;;;;;;;;23.70;46.10;;;;;;8366483;28;19992;-46
2021/09/04 15:06:58;;;;;;;;;;;23.70;46.60;;;;;;8366203;28;19948;-46
2021/09/04 15:10:58;;;;;;;;;;;23.70;46.00;;;;;;8366750;28;20385;-47
2021/09/04 15:14:59;;;;;;;;;;;23.70;46.00;;;;;;8367516;28;19974;-46
2021/09/04 15:19:00;;;;;;;;;;;23.70;46.00;;;;;;8365959;28;19917;-47
2021/09/04 15:23:00;;;;;;;;;;;23.70;46.00;;;;;;8366095;28;19916;-47
2021/09/04 15:27:01;;;;;;;;;;;23.70;46.00;;;;;;8366131;28;20494;-46
2021/09/04 15:31:02;;;;;;;;;;;23.70;46.10;;;;;;8366174;28;20365;-47
2021/09/04 15:35:02;;;;;;;;;;;23.70;46.10;;;;;;8365678;28;19925;-46
2021/09/04 15:39:05;;;;;;;;;;;23.70;46.20;;;;;;8365627;28;19916;-46
2021/09/04 15:43:07;;;;;;;;;;;23.70;46.10;;;;;;8365079;28;20007;-47
2021/09/04 15:47:07;;;;;;;;;;;23.70;46.20;;;;;;8365244;28;20342;-48
2021/09/04 15:51:07;;;;;;;;;;;23.70;46.20;;;;;;8365895;28;19913;-46
2021/09/04 15:55:08;;;;;;;;;;;23.70;46.20;;;;;;8364659;28;19967;-46
2021/09/04 15:59:08;;;;;;;;;;;23.70;46.10;;;;;;8365275;28;19928;-49
2021/09/04 16:03:09;;;;;;;;;;;23.70;46.20;;;;;;8364960;28;19917;-49
2021/09/04 16:07:09;;;;;;;;;;;23.70;46.20;;;;;;8364908;28;19917;-47
2021/09/04 16:11:10;;;;;;;;;;;23.70;46.20;;;;;;8364895;28;19917;-47
2021/09/04 16:15:11;;;;;;;;;;;23.70;46.20;;;;;;8364041;28;19932;-47
2021/09/04 16:19:11;;;;;;;;;;;23.70;46.20;;;;;;8364325;28;19923;-46
2021/09/04 16:23:12;;;;;;;;;;;23.70;46.20;;;;;;8364998;28;19940;-47
2021/09/04 16:27:12;;;;;;;;;;;23.70;46.20;;;;;;8364337;28;19920;-46
2021/09/04 16:31:13;;;;;;;;;;;23.70;46.20;;;;;;8363730;28;19917;-46
2021/09/04 16:35:14;;;;;;;;;;;23.70;46.10;;;;;;8363898;28;19968;-46
2021/09/04 16:39:15;;;;;;;;;;;23.70;46.20;;;;;;8364052;28;19998;-47
2021/09/04 16:43:15;;;;;;;;;;;23.70;46.20;;;;;;8364117;28;19920;-46
2021/09/04 16:47:16;;;;;;;;;;;23.70;46.20;;;;;;8363688;28;19956;-46
2021/09/04 16:51:16;;;;;;;;;;;23.70;46.10;;;;;;8363632;28;20281;-47
2021/09/04 16:55:17;;;;;;;;;;;23.70;46.10;;;;;;8362967;28;19969;-48
2021/09/04 16:59:17;;;;;;;;;;;23.70;46.10;;;;;;8364685;28;20396;-47
2021/09/04 17:03:18;;;;;;;;;;;23.70;46.10;;;;;;8363259;28;19963;-47
2021/09/04 17:07:18;;;;;;;;;;;23.70;46.10;;;;;;8363046;28;20270;-48
2021/09/04 17:11:22;;;;;;;;;;;23.70;46.10;;;;;;8363129;28;19917;-48
2021/09/04 17:15:23;;;;;;;;;;;23.70;46.10;;;;;;8363205;28;20288;-46
2021/09/04 17:19:23;;;;;;;;;;;23.70;46.00;;;;;;8363189;28;19919;-48
2021/09/04 17:23:24;;;;;;;;;;;23.70;46.10;;;;;;8363007;28;19970;-47
2021/09/04 17:27:25;;;;;;;;;;;23.70;46.10;;;;;;8367616;28;20336;-46
2021/09/04 17:31:28;;;;;;;;;;;23.70;46.10;;;;;;8369317;28;19916;-49
2021/09/04 17:35:29;;;;;;;;;;;23.70;46.10;;;;;;8370317;28;20396;-46
2021/09/04 17:39:29;;;;;;;;;;;23.70;46.10;;;;;;8369491;28;20003;-48
2021/09/04 17:43:30;;;;;;;;;;;23.70;46.10;;;;;;8369034;28;20003;-48
2021/09/04 17:47:31;;;;;;;;;;;23.70;46.10;;;;;;8369307;28;19917;-47
2021/09/04 17:51:31;;;;;;;;;;;23.70;46.10;;;;;;8369672;28;20386;-47
2021/09/04 17:55:31;;;;;;;;;;;23.70;46.20;;;;;;8368218;28;19928;-48
2021/09/04 17:59:32;;;;;;;;;;;23.70;46.20;;;;;;8368844;28;19920;-51
2021/09/04 18:03:32;;;;;;;;;;;23.70;46.20;;;;;;8368777;28;19917;-48
2021/09/04 18:07:33;;;;;;;;;;;23.70;46.20;;;;;;8367883;28;19921;-48
2021/09/04 18:11:33;;;;;;;;;;;23.70;46.20;;;;;;8369320;28;19916;-47
2021/09/04 18:15:34;;;;;;;;;;;23.70;46.20;;;;;;8368158;28;20022;-48
2021/09/04 18:19:34;;;;;;;;;;;23.60;46.30;;;;;;8367799;28;19924;-48
2021/09/04 18:23:35;;;;;;;;;;;23.60;46.30;;;;;;8367835;28;20397;-50
2021/09/04 18:27:35;;;;;;;;;;;23.70;46.30;;;;;;8368498;28;20003;-52
2021/09/04 18:31:36;;;;;;;;;;;23.60;46.30;;;;;;8367276;28;19917;-49
2021/09/04 18:35:36;;;;;;;;;;;23.60;46.30;;;;;;8367825;28;19992;-48
2021/09/04 18:39:37;;;;;;;;;;;23.70;46.40;;;;;;8366872;28;19913;-47
2021/09/04 18:43:37;;;;;;;;;;;23.60;46.40;;;;;;8367687;28;20496;-48
2021/09/04 18:47:38;;;;;;;;;;;23.60;46.40;;;;;;8367437;28;20804;-50
2021/09/04 18:51:38;;;;;;;;;;;23.60;46.40;;;;;;8367564;28;19959;-51
2021/09/04 18:55:39;;;;;;;;;;;23.60;46.40;;;;;;8365352;28;20007;-47
2021/09/04 18:59:39;;;;;;;;;;;23.60;46.90;;;;;;8367115;28;19913;-48
2021/09/04 19:03:39;;;;;;;;;;;23.60;46.40;;;;;;8367324;28;19924;-47
2021/09/04 19:07:41;;;;;;;;;;;23.60;46.40;;;;;;8366385;28;20003;-47
2021/09/04 19:11:42;;;;;;;;;;;23.60;46.40;;;;;;8366344;28;19960;-48
2021/09/04 19:15:42;;;;;;;;;;;23.60;46.40;;;;;;8366207;28;19936;-50
2021/09/04 19:19:43;;;;;;;;;;;23.60;46.40;;;;;;8366593;28;19920;-47
2021/09/04 19:23:43;;;;;;;;;;;23.60;46.40;;;;;;8366216;28;20431;-48
2021/09/04 19:27:44;;;;;;;;;;;23.60;46.40;;;;;;8365876;28;19964;-48
2021/09/04 19:31:44;;;;;;;;;;;23.60;46.50;;;;;;8365405;28;19917;-50
2021/09/04 19:35:45;;;;;;;;;;;23.60;47.00;;;;;;8365248;28;19957;-49
2021/09/04 19:39:45;;;;;;;;;;;23.60;46.50;;;;;;8365670;28;20295;-47
2021/09/04 19:43:46;;;;;;;;;;;23.60;46.50;;;;;;8365254;28;19924;-47
2021/09/04 19:47:46;;;;;;;;;;;23.60;46.50;;;;;;8365319;28;20011;-47
2021/09/04 19:51:46;;;;;;;;;;;23.60;46.50;;;;;;8364172;28;20396;-46
2021/09/04 19:55:47;;;;;;;;;;;23.60;46.60;;;;;;8365268;28;19927;-46
2021/09/04 19:59:47;;;;;;;;;;;23.60;46.50;;;;;;8363623;28;19944;-47
2021/09/04 20:03:48;;;;;;;;;;;23.60;46.50;;;;;;8365016;28;19923;-47
2021/09/04 20:07:48;;;;;;;;;;;23.60;46.60;;;;;;8364257;28;19925;-47
2021/09/04 20:11:56;;;;;;;;;;;23.50;46.60;;;;;;8426378;27;19924;-49
2021/09/04 20:15:56;;;;;;;;;;;23.50;46.50;;;;;;8393468;28;19917;-49
2021/09/04 20:19:57;;;;;;;;;;;23.50;46.60;;;;;;8392168;28;19924;-47
2021/09/04 20:23:57;;;;;;;;;;;23.50;46.60;;;;;;8391744;28;20270;-49
2021/09/04 20:27:58;;;;;;;;;;;23.50;46.60;;;;;;8391162;28;19913;-51
2021/09/04 20:31:58;;;;;;;;;;;23.50;46.60;;;;;;8392539;28;20369;-48
2021/09/04 20:36:14;;;;;;;;;;;23.50;46.60;;;;;;8391440;28;19944;-48
2021/09/04 20:40:14;;;;;;;;;;;23.50;46.60;;;;;;8392349;28;19920;-50
2021/09/04 20:44:16;;;;;;;;;;;23.50;46.60;;;;;;8391116;28;19924;-48
2021/09/04 20:48:17;;;;;;;;;;;23.50;46.60;;;;;;8391742;28;20384;-48
2021/09/04 20:52:21;;;;;;;;;;;23.50;46.60;;;;;;8390472;28;19917;-48
2021/09/04 20:56:22;;;;;;;;;;;23.50;46.70;;;;;;8390605;28;19917;-48
2021/09/04 21:00:22;;;;;;;;;;;23.50;46.70;;;;;;8390384;28;19959;-47
2021/09/04 21:04:23;;;;;;;;;;;23.50;46.70;;;;;;8390097;28;19916;-49
2021/09/04 21:08:23;;;;;;;;;;;23.50;46.70;;;;;;8395366;28;20365;-48
2021/09/04 21:12:24;;;;;;;;;;;23.50;46.70;;;;;;8423578;28;20391;-48
2021/09/04 21:16:24;;;;;;;;;;;23.50;46.70;;;;;;8422985;28;19923;-47
2021/09/04 21:20:25;;;;;;;;;;;23.50;46.70;;;;;;8416978;28;20296;-48
2021/09/04 21:24:26;;;;;;;;;;;23.40;46.70;;;;;;8401615;28;19919;-49
2021/09/04 21:28:27;;;;;;;;;;;23.40;46.70;;;;;;8400255;28;19925;-50
2021/09/04 21:32:27;;;;;;;;;;;23.40;46.70;;;;;;8400934;28;19923;-51
2021/09/04 21:36:28;;;;;;;;;;;23.40;46.70;;;;;;8400399;28;19922;-48
2021/09/04 21:40:28;;;;;;;;;;;23.40;46.70;;;;;;8400775;28;19912;-46
2021/09/04 21:44:29;;;;;;;;;;;23.50;46.80;;;;;;8400729;28;19917;-49
2021/09/04 21:48:29;;;;;;;;;;;23.40;46.70;;;;;;8400344;28;20373;-48
2021/09/04 21:52:30;;;;;;;;;;;23.40;46.70;;;;;;8399883;28;19916;-47
2021/09/04 21:56:31;;;;;;;;;;;23.40;46.80;;;;;;8400066;28;20001;-49
2021/09/04 22:00:33;;;;;;;;;;;23.40;46.80;;;;;;8401561;28;19913;-51
2021/09/04 22:04:33;;;;;;;;;;;23.40;46.80;;;;;;8406387;28;19928;-49
2021/09/04 22:08:34;;;;;;;;;;;23.40;46.80;;;;;;8399673;28;19925;-50
2021/09/04 22:12:34;;;;;;;;;;;23.40;46.80;;;;;;8399418;28;20357;-48
2021/09/04 22:16:35;;;;;;;;;;;23.40;46.70;;;;;;8399495;28;19917;-48
2021/09/04 22:20:35;;;;;;;;;;;23.40;46.80;;;;;;8399298;28;19916;-46
2021/09/04 22:24:36;;;;;;;;;;;23.40;47.30;;;;;;8399067;28;19916;-47
2021/09/04 22:28:36;;;;;;;;;;;23.40;46.70;;;;;;8398303;28;19960;-47
2021/09/04 22:32:37;;;;;;;;;;;23.40;46.70;;;;;;8398484;28;19912;-48
2021/09/04 22:36:42;;;;;;;;;;;23.40;46.90;;;;;;8399040;28;19913;-47
2021/09/04 22:40:43;;;;;;;;;;;23.40;46.80;;;;;;8398026;28;20368;-46
2021/09/04 22:44:44;;;;;;;;;;;23.40;46.80;;;;;;8398327;28;19920;-48
2021/09/04 22:48:44;;;;;;;;;;;23.40;46.80;;;;;;8397957;28;19933;-50
2021/09/04 22:52:45;;;;;;;;;;;23.30;46.70;;;;;;8413864;28;19919;-50
2021/09/04 22:56:46;;;;;;;;;;;23.30;46.70;;;;;;8403208;28;19923;-50
2021/09/04 23:00:46;;;;;;;;;;;23.30;46.70;;;;;;8397620;28;20344;-51
2021/09/04 23:04:46;;;;;;;;;;;23.30;46.70;;;;;;8396955;28;20337;-49
2021/09/04 23:08:47;;;;;;;;;;;23.30;46.70;;;;;;8398373;28;19932;-49
2021/09/04 23:12:47;;;;;;;;;;;23.30;46.80;;;;;;8397403;28;19917;-52
2021/09/04 23:16:48;;;;;;;;;;;23.30;46.70;;;;;;8396956;28;20003;-49
2021/09/04 23:20:48;;;;;;;;;;;23.30;46.80;;;;;;8397516;28;20007;-49